createdAt,value
2022-12-29T00:01:05.828Z,6.50
2022-12-29T00:03:34.209Z,6.57
2022-12-29T00:06:03.816Z,6.46
2022-12-29T00:08:43.102Z,6.64
2022-12-29T00:11:18.925Z,6.49
2022-12-29T00:14:06.912Z,6.46
2022-12-29T00:16:37.862Z,6.55
2022-12-29T00:19:27.783Z,6.44
2022-12-29T00:22:14.521Z,6.63
2022-12-29T00:25:01.317Z,6.54
2022-12-29T00:27:52.396Z,6.69
2022-12-29T00:30:43.610Z,6.57
2022-12-29T00:33:40.160Z,6.65
2022-12-29T00:36:40.318Z,6.94
2022-12-29T00:39:38.699Z,6.78
2022-12-29T00:42:30.999Z,6.63
2022-12-29T00:45:00.999Z,6.50
2022-12-29T00:47:31.043Z,6.53
2022-12-29T00:50:01.069Z,6.72
2022-12-29T00:52:31.221Z,6.75
2022-12-29T00:55:01.242Z,6.66
2022-12-29T00:57:31.255Z,6.60
2022-12-29T00:59:59.664Z,6.75
2022-12-29T01:02:28.243Z,6.78
2022-12-29T01:04:56.516Z,6.58
2022-12-29T01:07:24.972Z,6.82
2022-12-29T01:10:11.553Z,6.67
2022-12-29T01:12:41.825Z,6.82
2022-12-29T01:15:15.962Z,6.77
2022-12-29T01:17:43.798Z,6.75
2022-12-29T01:20:12.973Z,6.67
2022-12-29T01:22:40.870Z,6.67
2022-12-29T01:25:09.489Z,6.57
2022-12-29T01:27:37.088Z,6.50
2022-12-29T01:30:06.796Z,6.45
2022-12-29T01:32:37.324Z,6.57
2022-12-29T01:35:07.789Z,6.76
2022-12-29T01:37:37.731Z,6.80
2022-12-29T01:40:08.293Z,6.75
2022-12-29T01:42:38.258Z,6.78
2022-12-29T01:45:18.681Z,6.90
2022-12-29T01:48:11.098Z,6.70
2022-12-29T01:50:54.216Z,6.90
2022-12-29T01:53:36.116Z,6.84
2022-12-29T01:56:15.799Z,6.77
2022-12-29T01:58:57.233Z,6.74
2022-12-29T02:01:27.723Z,6.63
2022-12-29T02:03:55.905Z,6.53
2022-12-29T02:06:34.432Z,6.68
2022-12-29T02:09:03.401Z,6.55
2022-12-29T02:11:32.856Z,6.74
2022-12-29T02:14:03.853Z,6.71
2022-12-29T02:17:05.302Z,6.72
2022-12-29T02:20:15.169Z,6.75
2022-12-29T02:23:25.183Z,6.92
2022-12-29T02:27:14.711Z,7.00
2022-12-29T02:29:59.139Z,6.85
2022-12-29T02:32:43.869Z,6.77
2022-12-29T02:36:08.584Z,6.69
2022-12-29T02:39:16.442Z,6.84
2022-12-29T02:42:29.675Z,6.95
2022-12-29T02:45:46.585Z,6.86
2022-12-29T02:48:46.945Z,6.87
2022-12-29T02:51:40.844Z,6.79
2022-12-29T02:54:30.251Z,6.84
2022-12-29T02:57:00.241Z,6.90
2022-12-29T02:59:31.131Z,6.83
2022-12-29T03:02:53.972Z,7.00
2022-12-29T03:06:29.798Z,7.04
2022-12-29T03:09:38.497Z,7.20
2022-12-29T03:12:50.569Z,7.23
2022-12-29T03:16:01.984Z,7.32
2022-12-29T03:18:38.534Z,7.40
2022-12-29T03:21:44.340Z,7.31
2022-12-29T03:24:18.666Z,7.29
2022-12-29T03:26:56.184Z,7.33
2022-12-29T03:29:34.310Z,7.38
2022-12-29T03:32:09.964Z,7.32
2022-12-29T03:34:41.146Z,7.30
2022-12-29T03:37:27.124Z,7.46
2022-12-29T03:39:58.515Z,7.44
2022-12-29T03:42:36.790Z,7.61
2022-12-29T03:45:10.203Z,7.51
2022-12-29T03:47:40.405Z,7.58
2022-12-29T03:50:14.490Z,7.45
2022-12-29T03:52:44.473Z,7.37
2022-12-29T03:55:14.595Z,7.47
2022-12-29T03:57:44.638Z,7.37
2022-12-29T04:00:15.668Z,7.30
2022-12-29T04:02:45.992Z,7.41
2022-12-29T04:05:16.150Z,7.41
2022-12-29T04:07:46.257Z,7.50
2022-12-29T04:10:16.367Z,7.62
2022-12-29T04:12:47.697Z,7.58
2022-12-29T04:15:18.414Z,7.66
2022-12-29T04:17:48.451Z,7.58
2022-12-29T04:20:35.792Z,7.79
2022-12-29T04:23:08.415Z,7.79
2022-12-29T04:25:37.276Z,7.65
2022-12-29T04:28:06.402Z,7.63
2022-12-29T04:30:34.242Z,7.60
2022-12-29T04:33:02.805Z,7.66
2022-12-29T04:35:31.222Z,7.64
2022-12-29T04:37:59.617Z,7.59
2022-12-29T04:40:28.453Z,7.57
2022-12-29T04:42:57.023Z,7.58
2022-12-29T04:45:24.895Z,7.58
2022-12-29T04:47:53.332Z,7.71
2022-12-29T04:50:21.752Z,7.57
2022-12-29T04:52:50.197Z,7.68
2022-12-29T04:55:18.689Z,7.77
2022-12-29T04:57:47.393Z,7.67
2022-12-29T05:00:15.862Z,7.76
2022-12-29T05:02:44.001Z,7.81
2022-12-29T05:05:12.781Z,7.79
2022-12-29T05:07:41.478Z,7.75
2022-12-29T05:10:10.270Z,7.74
2022-12-29T05:12:39.541Z,7.79
2022-12-29T05:15:12.170Z,7.75
2022-12-29T05:17:42.248Z,7.92
2022-12-29T05:20:13.017Z,7.99
2022-12-29T05:22:43.113Z,8.25
2022-12-29T05:25:13.175Z,8.09
2022-12-29T05:27:43.194Z,7.91
2022-12-29T05:30:13.887Z,7.91
2022-12-29T05:32:44.585Z,8.11
2022-12-29T05:35:14.724Z,8.11
2022-12-29T05:37:44.881Z,8.25
2022-12-29T05:40:14.930Z,8.43
2022-12-29T05:42:45.050Z,8.31
2022-12-29T05:45:15.164Z,8.35
2022-12-29T05:47:45.340Z,8.29
2022-12-29T05:50:15.458Z,8.30
2022-12-29T05:52:46.161Z,8.40
2022-12-29T05:55:16.355Z,8.42
2022-12-29T05:57:46.592Z,8.32
2022-12-29T06:00:17.229Z,8.34
2022-12-29T06:02:47.502Z,8.39
2022-12-29T06:05:17.990Z,8.53
2022-12-29T06:07:48.179Z,8.72
2022-12-29T06:10:18.790Z,8.67
2022-12-29T06:12:49.082Z,8.56
2022-12-29T06:15:18.697Z,8.37
2022-12-29T06:17:48.749Z,8.37
2022-12-29T06:20:17.351Z,8.38
2022-12-29T06:22:46.437Z,8.38
2022-12-29T06:25:14.071Z,8.36
2022-12-29T06:27:43.432Z,8.45
2022-12-29T06:30:13.253Z,8.39
2022-12-29T06:32:43.495Z,8.44
2022-12-29T06:35:13.602Z,8.22
2022-12-29T06:37:44.378Z,8.14
2022-12-29T06:40:14.530Z,8.14
2022-12-29T06:42:44.727Z,8.13
2022-12-29T06:45:12.979Z,8.11
2022-12-29T06:47:41.372Z,8.40
2022-12-29T06:50:10.226Z,8.18
2022-12-29T06:52:38.309Z,8.16
2022-12-29T06:55:07.282Z,8.30
2022-12-29T06:57:35.108Z,8.21
2022-12-29T07:00:06.091Z,8.16
2022-12-29T07:02:34.991Z,8.27
2022-12-29T07:05:03.354Z,8.28
2022-12-29T07:07:31.754Z,8.26
2022-12-29T07:10:00.107Z,8.13
2022-12-29T07:12:28.540Z,8.24
2022-12-29T07:14:56.922Z,8.52
2022-12-29T07:17:25.350Z,8.53
2022-12-29T07:19:53.728Z,8.54
2022-12-29T07:22:22.286Z,8.47
2022-12-29T07:24:50.638Z,8.44
2022-12-29T07:27:19.029Z,8.41
2022-12-29T07:29:47.596Z,8.52
2022-12-29T07:32:16.171Z,8.52
2022-12-29T07:34:46.382Z,8.73
2022-12-29T07:37:17.784Z,8.63
2022-12-29T07:39:48.225Z,8.39
2022-12-29T07:42:18.488Z,8.46
2022-12-29T07:44:48.630Z,8.59
2022-12-29T07:47:18.687Z,8.61
2022-12-29T07:49:48.761Z,8.48
2022-12-29T07:52:18.746Z,8.47
2022-12-29T07:54:48.788Z,8.53
2022-12-29T07:57:18.815Z,8.31
2022-12-29T07:59:48.822Z,8.54
2022-12-29T08:02:18.974Z,8.60
2022-12-29T08:04:49.129Z,8.70
2022-12-29T08:07:19.194Z,8.60
2022-12-29T08:09:49.210Z,8.82
2022-12-29T08:12:22.218Z,8.89
2022-12-29T08:14:52.243Z,9.01
2022-12-29T08:17:22.520Z,9.01
2022-12-29T08:19:52.534Z,9.04
2022-12-29T08:22:22.643Z,9.22
2022-12-29T08:24:53.107Z,9.04
2022-12-29T08:27:23.381Z,8.98
2022-12-29T08:29:53.734Z,8.99
2022-12-29T08:32:23.762Z,9.01
2022-12-29T08:34:54.052Z,8.79
2022-12-29T08:37:30.720Z,8.72
2022-12-29T08:39:59.774Z,8.77
2022-12-29T08:42:32.055Z,8.79
2022-12-29T08:45:02.569Z,8.64
2022-12-29T08:47:32.642Z,8.71
2022-12-29T08:50:02.819Z,8.87
2022-12-29T08:52:32.516Z,8.90
2022-12-29T08:55:02.280Z,9.03
2022-12-29T08:57:32.163Z,9.01
2022-12-29T09:00:03.796Z,8.96
2022-12-29T09:02:32.655Z,8.94
2022-12-29T09:05:02.605Z,8.92
2022-12-29T09:07:32.590Z,9.22
2022-12-29T09:10:02.846Z,9.34
2022-12-29T09:12:36.331Z,9.16
2022-12-29T09:15:08.149Z,9.17
2022-12-29T09:17:46.459Z,9.31
2022-12-29T09:20:20.141Z,9.52
2022-12-29T09:22:50.438Z,9.42
2022-12-29T09:25:20.952Z,9.34
2022-12-29T09:27:54.261Z,9.31
2022-12-29T09:30:25.407Z,9.28
2022-12-29T09:32:55.663Z,9.42
2022-12-29T09:35:23.775Z,9.66
2022-12-29T09:37:55.863Z,9.63
2022-12-29T09:40:33.867Z,9.90
2022-12-29T09:43:28.448Z,9.76
2022-12-29T09:46:15.423Z,9.92
2022-12-29T09:49:05.149Z,10.10
2022-12-29T09:51:43.233Z,10.30
2022-12-29T09:54:36.714Z,10.52
2022-12-29T09:57:47.181Z,10.59
2022-12-29T10:00:23.485Z,10.80
2022-12-29T10:03:16.440Z,11.05
2022-12-29T10:06:13.945Z,10.94
2022-12-29T10:09:31.466Z,10.84
2022-12-29T10:12:31.616Z,11.04
2022-12-29T10:15:46.557Z,11.31
2022-12-29T10:19:11.732Z,11.43
2022-12-29T10:22:50.114Z,11.44
2022-12-29T10:25:31.074Z,11.33
2022-12-29T10:28:56.341Z,11.41
2022-12-29T10:32:03.752Z,11.44
2022-12-29T10:34:51.035Z,11.51
2022-12-29T10:37:58.549Z,11.78
2022-12-29T10:41:01.489Z,11.78
2022-12-29T10:43:58.492Z,11.68
2022-12-29T10:46:39.060Z,11.82
2022-12-29T10:49:21.878Z,11.68
2022-12-29T10:52:01.413Z,11.72
2022-12-29T10:55:00.107Z,11.89
2022-12-29T10:57:40.842Z,11.65
2022-12-29T11:00:22.133Z,11.56
2022-12-29T11:04:01.265Z,11.50
2022-12-29T11:06:31.514Z,11.49
2022-12-29T11:09:32.466Z,11.28
2022-12-29T11:12:30.427Z,11.24
2022-12-29T11:15:09.710Z,11.36
2022-12-29T11:17:57.777Z,11.16
2022-12-29T11:20:39.531Z,11.11
2022-12-29T11:23:41.221Z,10.90
2022-12-29T11:26:34.125Z,10.60
2022-12-29T11:29:17.644Z,10.35
2022-12-29T11:31:56.538Z,10.35
2022-12-29T11:34:35.736Z,10.06
2022-12-29T11:37:35.571Z,10.05
2022-12-29T11:40:20.152Z,9.84
2022-12-29T11:43:04.805Z,9.79
2022-12-29T11:45:38.339Z,9.65
2022-12-29T11:48:20.849Z,9.42
2022-12-29T11:51:01.964Z,9.41
2022-12-29T11:53:50.498Z,9.27
2022-12-29T11:56:40.111Z,9.23
2022-12-29T11:59:28.709Z,9.05
2022-12-29T12:02:04.370Z,8.89
2022-12-29T12:04:39.653Z,8.88
2022-12-29T12:07:40.939Z,8.99
2022-12-29T12:10:43.445Z,8.90
2022-12-29T12:13:51.249Z,8.84
2022-12-29T12:16:42.655Z,8.81
2022-12-29T12:19:49.210Z,8.65
2022-12-29T12:22:38.449Z,8.66
2022-12-29T12:25:24.495Z,8.64
2022-12-29T12:28:14.655Z,8.46
2022-12-29T12:30:58.048Z,8.40
2022-12-29T12:33:45.313Z,8.37
2022-12-29T12:37:08.166Z,8.22
2022-12-29T12:40:00.701Z,8.19
2022-12-29T12:43:04.674Z,8.24
2022-12-29T12:46:28.650Z,8.28
2022-12-29T12:49:39.564Z,8.21
2022-12-29T12:52:31.321Z,8.15
2022-12-29T12:55:39.117Z,8.17
2022-12-29T12:58:42.690Z,8.28
2022-12-29T13:01:30.455Z,8.42
2022-12-29T13:04:19.020Z,8.71
2022-12-29T13:07:22.193Z,8.50
2022-12-29T13:10:37.498Z,8.55
2022-12-29T13:14:08.331Z,8.73
2022-12-29T13:17:37.883Z,8.74
2022-12-29T13:20:53.466Z,8.61
2022-12-29T13:23:56.306Z,8.68
2022-12-29T13:26:42.198Z,8.58
2022-12-29T13:29:31.167Z,8.60
2022-12-29T13:32:26.214Z,8.45
2022-12-29T13:35:17.767Z,8.42
2022-12-29T13:38:10.318Z,8.30
2022-12-29T13:40:53.177Z,8.36
2022-12-29T13:43:29.668Z,8.33
2022-12-29T13:46:28.181Z,8.29
2022-12-29T13:49:20.794Z,8.12
2022-12-29T13:51:58.997Z,8.04
2022-12-29T13:55:23.848Z,8.12
2022-12-29T13:58:14.440Z,8.28
2022-12-29T14:01:01.182Z,8.20
2022-12-29T14:03:54.934Z,8.08
2022-12-29T14:06:41.382Z,8.34
2022-12-29T14:09:44.037Z,8.20
2022-12-29T14:12:43.025Z,8.15
2022-12-29T14:15:12.930Z,8.08
2022-12-29T14:17:42.797Z,8.26
2022-12-29T14:20:24.422Z,8.30
2022-12-29T14:23:35.683Z,8.43
2022-12-29T14:26:07.842Z,8.41
2022-12-29T14:28:48.296Z,8.47
2022-12-29T14:31:16.014Z,8.42
2022-12-29T14:34:07.601Z,8.45
2022-12-29T14:37:05.163Z,8.57
2022-12-29T14:39:45.880Z,8.44
2022-12-29T14:42:23.854Z,8.33
2022-12-29T14:45:03.588Z,8.42
2022-12-29T14:48:01.123Z,8.39
2022-12-29T14:55:16.805Z,8.30
2022-12-29T14:58:02.097Z,8.30
2022-12-29T15:00:38.336Z,8.22
2022-12-29T15:03:24.327Z,8.23
2022-12-29T15:06:09.502Z,8.12
2022-12-29T15:09:00.111Z,8.04
2022-12-29T15:11:53.023Z,8.04
2022-12-29T15:14:38.494Z,8.11
2022-12-29T15:17:35.626Z,7.99
2022-12-29T15:20:29.860Z,8.10
2022-12-29T15:23:19.601Z,8.15
2022-12-29T15:26:03.497Z,8.25
2022-12-29T15:28:47.804Z,8.15
2022-12-29T15:31:30.633Z,7.98
2022-12-29T15:34:13.688Z,7.81
2022-12-29T15:36:44.441Z,7.65
2022-12-29T15:39:27.599Z,7.73
2022-12-29T15:42:20.740Z,7.66
2022-12-29T15:44:57.917Z,7.68
2022-12-29T15:47:35.600Z,7.47
2022-12-29T15:50:28.372Z,7.25
2022-12-29T15:53:00.139Z,7.06
2022-12-29T15:55:42.483Z,7.00
2022-12-29T15:58:30.614Z,6.91
2022-12-29T16:01:03.040Z,6.77
2022-12-29T16:03:38.522Z,6.73
2022-12-29T16:06:38.805Z,6.90
2022-12-29T16:09:37.683Z,6.99
2022-12-29T16:12:26.042Z,7.06
2022-12-29T16:15:04.212Z,7.28
2022-12-29T16:17:55.021Z,7.27
2022-12-29T16:20:41.373Z,7.20
2022-12-29T16:23:28.593Z,7.22
2022-12-29T16:25:59.992Z,7.28
2022-12-29T16:28:45.762Z,7.19
2022-12-29T16:31:24.920Z,7.39
2022-12-29T16:33:57.449Z,7.47
2022-12-29T16:36:42.162Z,7.44
2022-12-29T16:39:40.574Z,7.40
2022-12-29T16:42:51.841Z,7.32
2022-12-29T16:45:22.567Z,7.20
2022-12-29T16:48:07.726Z,7.26
2022-12-29T16:50:41.924Z,7.43
2022-12-29T16:53:49.975Z,7.59
2022-12-29T16:56:29.907Z,7.80
2022-12-29T16:59:33.402Z,7.77
2022-12-29T17:02:16.239Z,7.56
2022-12-29T17:04:49.528Z,7.31
2022-12-29T17:07:25.648Z,7.32
2022-12-29T17:09:56.073Z,7.42
2022-12-29T17:12:31.470Z,7.47
2022-12-29T17:15:35.209Z,7.45
2022-12-29T17:18:11.732Z,7.39
2022-12-29T17:20:43.574Z,7.57
2022-12-29T17:23:22.760Z,7.57
2022-12-29T17:25:56.691Z,7.96
2022-12-29T17:28:32.961Z,8.12
2022-12-29T17:31:07.787Z,8.24
2022-12-29T17:33:42.858Z,8.23
2022-12-29T17:36:12.743Z,8.18
2022-12-29T17:38:41.981Z,8.08
2022-12-29T17:41:15.488Z,8.07
2022-12-29T17:43:45.525Z,8.21
2022-12-29T17:46:15.272Z,7.98
2022-12-29T17:48:49.725Z,7.85
2022-12-29T17:51:23.294Z,7.90
2022-12-29T17:53:52.224Z,7.86
2022-12-29T17:56:19.574Z,7.86
2022-12-29T17:58:50.373Z,7.85
2022-12-29T18:01:21.898Z,7.79
2022-12-29T18:03:52.298Z,7.70
2022-12-29T18:06:21.852Z,7.60
2022-12-29T18:08:51.799Z,7.47
2022-12-29T18:11:28.193Z,7.41
2022-12-29T18:13:57.184Z,7.25
2022-12-29T18:16:28.079Z,7.27
2022-12-29T18:18:57.344Z,7.21
2022-12-29T18:21:27.537Z,7.12
2022-12-29T18:23:57.225Z,6.96
2022-12-29T18:26:35.688Z,6.83
2022-12-29T18:29:04.783Z,6.69
2022-12-29T18:31:36.703Z,6.50
2022-12-29T18:34:15.586Z,6.38
2022-12-29T18:36:45.722Z,6.21
2022-12-29T18:39:15.277Z,6.13
2022-12-29T18:41:45.121Z,5.97
2022-12-29T18:44:14.949Z,6.23
2022-12-29T18:46:44.819Z,6.07
2022-12-29T18:49:13.336Z,5.98
2022-12-29T18:51:41.767Z,5.95
2022-12-29T18:54:30.573Z,6.13
2022-12-29T18:57:00.879Z,6.24
2022-12-29T18:59:30.906Z,6.53
2022-12-29T19:02:00.937Z,6.40
2022-12-29T19:04:31.011Z,6.38
2022-12-29T19:07:01.096Z,6.38
2022-12-29T19:09:31.112Z,6.36
2022-12-29T19:12:01.118Z,6.39
2022-12-29T19:14:31.226Z,6.59
2022-12-29T19:16:59.607Z,6.81
2022-12-29T19:19:28.039Z,6.79
2022-12-29T19:21:58.165Z,6.94
2022-12-29T19:24:27.935Z,6.88
2022-12-29T19:26:56.612Z,6.82
2022-12-29T19:29:24.986Z,6.83
2022-12-29T19:31:53.426Z,6.84
2022-12-29T19:34:21.987Z,6.70
2022-12-29T19:36:50.381Z,6.59
2022-12-29T19:39:19.027Z,6.46
2022-12-29T19:41:47.171Z,6.42
2022-12-29T19:44:17.341Z,6.44
2022-12-29T19:46:47.780Z,6.47
2022-12-29T19:49:17.805Z,6.49
2022-12-29T19:51:47.853Z,6.47
2022-12-29T19:54:17.877Z,6.57
2022-12-29T19:56:48.235Z,7.04
2022-12-29T19:59:18.304Z,7.02
2022-12-29T20:01:48.987Z,6.99
2022-12-29T20:04:16.736Z,6.98
2022-12-29T20:06:45.289Z,6.88
2022-12-29T20:09:13.534Z,6.87
2022-12-29T20:11:42.002Z,6.84
2022-12-29T20:14:10.434Z,6.81
2022-12-29T20:17:02.408Z,6.86
2022-12-29T20:19:26.357Z,7.02
2022-12-29T20:21:56.687Z,7.10
2022-12-29T20:24:27.023Z,7.39
2022-12-29T20:26:57.675Z,7.47
2022-12-29T20:29:27.854Z,7.30
2022-12-29T20:31:57.959Z,7.22
2022-12-29T20:34:28.010Z,7.12
2022-12-29T20:36:58.083Z,7.14
2022-12-29T20:39:28.245Z,7.30
2022-12-29T20:41:59.912Z,7.43
2022-12-29T20:44:32.491Z,7.31
2022-12-29T20:47:03.709Z,7.36
2022-12-29T20:49:35.419Z,7.41
2022-12-29T20:52:07.196Z,7.26
2022-12-29T20:54:39.827Z,7.17
2022-12-29T20:57:10.164Z,7.16
2022-12-29T20:59:40.242Z,7.31
2022-12-29T21:02:23.925Z,7.50
2022-12-29T21:07:44.755Z,7.61
2022-12-29T21:10:15.899Z,7.53
2022-12-29T21:12:43.464Z,7.42
2022-12-29T21:15:14.412Z,7.54
2022-12-29T21:17:46.821Z,7.52
2022-12-29T21:20:30.051Z,7.25
2022-12-29T21:23:02.874Z,6.99
2022-12-29T21:25:37.423Z,7.25
2022-12-29T21:28:12.354Z,7.15
2022-12-29T21:30:42.728Z,7.04
2022-12-29T21:33:12.794Z,7.16
2022-12-29T21:35:41.389Z,6.90
2022-12-29T21:38:10.005Z,6.75
2022-12-29T21:40:40.866Z,6.75
2022-12-29T21:43:12.454Z,6.64
2022-12-29T21:45:42.512Z,6.63
2022-12-29T21:48:21.641Z,6.55
2022-12-29T21:51:16.611Z,6.60
2022-12-29T21:53:46.051Z,6.62
2022-12-29T21:56:21.363Z,6.45
2022-12-29T21:59:10.091Z,6.20
2022-12-29T22:01:58.771Z,6.00
2022-12-29T22:04:47.598Z,5.89
2022-12-29T22:07:36.305Z,5.97
2022-12-29T22:10:26.094Z,5.80
2022-12-29T22:13:00.069Z,5.89
2022-12-29T22:15:37.546Z,5.74
2022-12-29T22:18:07.739Z,5.75
2022-12-29T22:20:37.916Z,5.61
2022-12-29T22:23:07.963Z,5.65
2022-12-29T22:25:40.951Z,5.71
2022-12-29T22:28:11.731Z,5.80
2022-12-29T22:30:41.968Z,5.79
2022-12-29T22:33:12.088Z,5.80
2022-12-29T22:35:42.176Z,5.97
2022-12-29T22:38:10.654Z,5.90
2022-12-29T22:40:39.128Z,5.66
2022-12-29T22:43:12.892Z,5.64
2022-12-29T22:45:43.455Z,5.75
2022-12-29T22:48:13.551Z,5.55
2022-12-29T22:50:43.558Z,5.50
2022-12-29T22:53:13.571Z,5.29
2022-12-29T22:55:43.554Z,5.27
2022-12-29T22:58:13.593Z,5.30
2022-12-29T23:00:43.600Z,5.27
2022-12-29T23:03:13.912Z,5.12
2022-12-29T23:05:44.054Z,5.08
2022-12-29T23:08:14.048Z,5.00
2022-12-29T23:10:44.111Z,4.95
2022-12-29T23:13:14.134Z,4.92
2022-12-29T23:15:44.303Z,5.07
2022-12-29T23:18:15.297Z,5.27
2022-12-29T23:20:47.727Z,5.35
2022-12-29T23:23:41.823Z,5.31
2022-12-29T23:26:15.875Z,5.29
2022-12-29T23:28:44.399Z,5.39
2022-12-29T23:31:12.841Z,5.43
2022-12-29T23:33:40.815Z,5.40
2022-12-29T23:36:10.552Z,5.39
2022-12-29T23:38:40.975Z,5.35
2022-12-29T23:41:12.058Z,5.37
2022-12-29T23:43:42.167Z,5.40
2022-12-29T23:46:18.936Z,5.62
2022-12-29T23:48:49.513Z,5.60
2022-12-29T23:51:20.064Z,5.58
2022-12-29T23:53:50.167Z,5.44
2022-12-29T23:56:23.657Z,5.60
2022-12-29T23:58:54.945Z,5.52
